sensor_id;sensor_type;location;lat;lon;timestamp;pressure;altitude;pressure_sealevel;temperature;humidity
56052;BME280;41919;42.648;23.384;2023-08-24T00:01:15;94696.69;;;22.84;60.54
56052;BME280;41919;42.648;23.384;2023-08-24T00:03:44;94695.69;;;22.75;60.59
56052;BME280;41919;42.648;23.384;2023-08-24T00:06:09;94675.53;;;22.63;60.79
56052;BME280;41919;42.648;23.384;2023-08-24T00:08:35;94701.72;;;22.85;60.82
56052;BME280;41919;42.648;23.384;2023-08-24T00:11:01;94706.03;;;22.81;60.55
56052;BME280;41919;42.648;23.384;2023-08-24T00:13:27;94650.31;;;22.45;60.83
56052;BME280;41919;42.648;23.384;2023-08-24T00:15:53;94686.69;;;22.65;60.84
56052;BME280;41919;42.648;23.384;2023-08-24T00:18:19;94686.19;;;22.58;60.97
56052;BME280;41919;42.648;23.384;2023-08-24T00:20:47;94655.19;;;22.38;61.17
56052;BME280;41919;42.648;23.384;2023-08-24T00:23:12;94655.47;;;22.31;61.54
56052;BME280;41919;42.648;23.384;2023-08-24T00:25:38;94664.25;;;22.32;61.88
56052;BME280;41919;42.648;23.384;2023-08-24T00:28:06;94688.13;;;22.47;62.16
56052;BME280;41919;42.648;23.384;2023-08-24T00:30:31;94688.88;;;22.53;62.04
56052;BME280;41919;42.648;23.384;2023-08-24T00:32:57;94631.28;;;22.23;61.87
56052;BME280;41919;42.648;23.384;2023-08-24T00:35:22;94674.81;;;22.47;61.94
56052;BME280;41919;42.648;23.384;2023-08-24T00:37:47;94686.19;;;22.63;61.60
56052;BME280;41919;42.648;23.384;2023-08-24T00:40:13;94618.25;;;22.26;61.26
56052;BME280;41919;42.648;23.384;2023-08-24T00:42:43;94621.16;;;22.20;61.52
56052;BME280;41919;42.648;23.384;2023-08-24T00:45:10;94663.34;;;22.47;61.76
56052;BME280;41919;42.648;23.384;2023-08-24T00:47:44;94676.66;;;22.52;62.02
56052;BME280;41919;42.648;23.384;2023-08-24T00:50:10;94693.16;;;22.49;62.13
56052;BME280;41919;42.648;23.384;2023-08-24T00:52:38;94647.50;;;22.21;62.34
56052;BME280;41919;42.648;23.384;2023-08-24T00:55:06;94649.09;;;22.27;62.33
56052;BME280;41919;42.648;23.384;2023-08-24T00:57:32;94670.84;;;22.45;62.54
56052;BME280;41919;42.648;23.384;2023-08-24T00:59:59;94697.41;;;22.55;62.59
56052;BME280;41919;42.648;23.384;2023-08-24T01:02:27;94698.97;;;22.61;62.69
56052;BME280;41919;42.648;23.384;2023-08-24T01:04:52;94679.84;;;22.49;62.42
56052;BME280;41919;42.648;23.384;2023-08-24T01:07:18;94641.09;;;22.22;62.43
56052;BME280;41919;42.648;23.384;2023-08-24T01:09:44;94594.13;;;21.97;62.30
56052;BME280;41919;42.648;23.384;2023-08-24T01:15:13;94695.97;;;22.28;64.05
56052;BME280;41919;42.648;23.384;2023-08-24T01:17:43;94688.28;;;22.06;65.14
56052;BME280;41919;42.648;23.384;2023-08-24T01:20:09;94643.50;;;21.59;66.46
56052;BME280;41919;42.648;23.384;2023-08-24T01:23:04;94703.78;;;21.84;67.42
56052;BME280;41919;42.648;23.384;2023-08-24T01:25:52;94680.47;;;21.55;68.47
56052;BME280;41919;42.648;23.384;2023-08-24T01:28:19;94685.53;;;21.51;69.66
56052;BME280;41919;42.648;23.384;2023-08-24T01:30:46;94682.34;;;21.39;70.74
56052;BME280;41919;42.648;23.384;2023-08-24T01:33:12;94658.44;;;21.13;71.66
56052;BME280;41919;42.648;23.384;2023-08-24T01:35:39;94651.28;;;20.99;73.27
56052;BME280;41919;42.648;23.384;2023-08-24T01:38:05;94691.66;;;21.16;73.50
56052;BME280;41919;42.648;23.384;2023-08-24T01:43:35;94657.13;;;20.95;73.17
56052;BME280;41919;42.648;23.384;2023-08-24T01:46:03;94687.13;;;21.22;73.09
56052;BME280;41919;42.648;23.384;2023-08-24T01:48:30;94645.72;;;20.85;72.91
56052;BME280;41919;42.648;23.384;2023-08-24T01:50:58;94698.31;;;21.08;73.03
56052;BME280;41919;42.648;23.384;2023-08-24T01:53:24;94642.78;;;20.66;73.23
56052;BME280;41919;42.648;23.384;2023-08-24T01:55:50;94708.91;;;20.88;73.85
56052;BME280;41919;42.648;23.384;2023-08-24T01:58:15;94641.41;;;20.43;74.57
56052;BME280;41919;42.648;23.384;2023-08-24T02:00:41;94642.44;;;20.36;74.72
56052;BME280;41919;42.648;23.384;2023-08-24T02:03:06;94691.63;;;20.65;75.29
56052;BME280;41919;42.648;23.384;2023-08-24T02:05:32;94634.47;;;20.31;75.10
56052;BME280;41919;42.648;23.384;2023-08-24T02:07:57;94684.72;;;20.64;74.94
56052;BME280;41919;42.648;23.384;2023-08-24T02:10:25;94685.78;;;20.63;75.01
56052;BME280;41919;42.648;23.384;2023-08-24T02:12:51;94652.50;;;20.34;74.55
56052;BME280;41919;42.648;23.384;2023-08-24T02:15:17;94713.16;;;20.73;74.46
56052;BME280;41919;42.648;23.384;2023-08-24T02:17:42;94707.59;;;20.75;74.74
56052;BME280;41919;42.648;23.384;2023-08-24T02:20:08;94657.59;;;20.46;74.39
56052;BME280;41919;42.648;23.384;2023-08-24T02:22:37;94697.78;;;20.81;74.13
56052;BME280;41919;42.648;23.384;2023-08-24T02:25:02;94706.78;;;20.90;73.70
56052;BME280;41919;42.648;23.384;2023-08-24T02:27:30;94656.59;;;20.68;73.46
56052;BME280;41919;42.648;23.384;2023-08-24T02:29:55;94704.13;;;20.95;73.28
56052;BME280;41919;42.648;23.384;2023-08-24T02:32:21;94654.72;;;20.68;72.69
56052;BME280;41919;42.648;23.384;2023-08-24T02:34:46;94710.78;;;21.03;72.73
56052;BME280;41919;42.648;23.384;2023-08-24T02:37:11;94683.94;;;20.84;72.66
56052;BME280;41919;42.648;23.384;2023-08-24T02:39:37;94670.13;;;20.82;72.43
56052;BME280;41919;42.648;23.384;2023-08-24T02:42:02;94696.97;;;21.01;71.86
56052;BME280;41919;42.648;23.384;2023-08-24T02:44:27;94659.25;;;20.83;71.75
56052;BME280;41919;42.648;23.384;2023-08-24T02:46:53;94704.16;;;21.10;71.32
56052;BME280;41919;42.648;23.384;2023-08-24T02:49:19;94657.13;;;20.95;70.89
56052;BME280;41919;42.648;23.384;2023-08-24T02:51:44;94680.75;;;21.18;70.04
56052;BME280;41919;42.648;23.384;2023-08-24T02:54:10;94649.44;;;21.09;69.88
56052;BME280;41919;42.648;23.384;2023-08-24T02:56:35;94631.34;;;21.06;69.90
56052;BME280;41919;42.648;23.384;2023-08-24T02:59:00;94521.97;;;20.43;68.96
56052;BME280;41919;42.648;23.384;2023-08-24T03:01:26;94666.94;;;21.46;68.91
56052;BME280;41919;42.648;23.384;2023-08-24T03:03:51;94641.94;;;21.32;68.94
56052;BME280;41919;42.648;23.384;2023-08-24T03:06:17;94684.19;;;21.54;69.28
56052;BME280;41919;42.648;23.384;2023-08-24T03:08:42;94679.19;;;21.11;71.41
56052;BME280;41919;42.648;23.384;2023-08-24T03:11:08;94633.47;;;20.63;71.91
56052;BME280;41919;42.648;23.384;2023-08-24T03:13:36;94628.66;;;20.50;72.25
56052;BME280;41919;42.648;23.384;2023-08-24T03:16:05;94652.06;;;20.63;72.41
56052;BME280;41919;42.648;23.384;2023-08-24T03:18:31;94698.03;;;20.94;71.85
56052;BME280;41919;42.648;23.384;2023-08-24T03:20:56;94611.66;;;20.46;71.39
56052;BME280;41919;42.648;23.384;2023-08-24T03:23:22;94694.31;;;21.06;71.26
56052;BME280;41919;42.648;23.384;2023-08-24T03:25:47;94697.22;;;21.14;71.11
56052;BME280;41919;42.648;23.384;2023-08-24T03:28:13;94712.38;;;21.34;70.09
56052;BME280;41919;42.648;23.384;2023-08-24T03:30:46;94667.97;;;21.30;69.24
56052;BME280;41919;42.648;23.384;2023-08-24T03:33:12;94643.00;;;21.31;68.27
56052;BME280;41919;42.648;23.384;2023-08-24T03:35:37;94662.91;;;21.59;67.32
56052;BME280;41919;42.648;23.384;2023-08-24T03:38:03;94713.84;;;22.07;66.30
56052;BME280;41919;42.648;23.384;2023-08-24T03:40:29;94711.19;;;21.97;65.54
56052;BME280;41919;42.648;23.384;2023-08-24T03:42:54;94738.31;;;22.09;65.21
56052;BME280;41919;42.648;23.384;2023-08-24T03:45:20;94739.63;;;22.17;65.13
56052;BME280;41919;42.648;23.384;2023-08-24T03:47:46;94732.41;;;22.23;64.66
56052;BME280;41919;42.648;23.384;2023-08-24T03:50:11;94731.59;;;22.22;63.94
56052;BME280;41919;42.648;23.384;2023-08-24T03:52:37;94699.81;;;21.86;64.33
56052;BME280;41919;42.648;23.384;2023-08-24T03:55:05;94744.47;;;21.95;65.44
56052;BME280;41919;42.648;23.384;2023-08-24T03:57:31;94682.31;;;21.65;65.72
56052;BME280;41919;42.648;23.384;2023-08-24T03:59:56;94730.59;;;22.08;65.82
56052;BME280;41919;42.648;23.384;2023-08-24T04:02:22;94749.19;;;22.18;66.13
56052;BME280;41919;42.648;23.384;2023-08-24T04:04:47;94748.94;;;22.20;66.07
56052;BME280;41919;42.648;23.384;2023-08-24T04:07:13;94749.19;;;22.18;66.22
56052;BME280;41919;42.648;23.384;2023-08-24T04:09:38;94749.72;;;22.20;65.81
56052;BME280;41919;42.648;23.384;2023-08-24T04:12:04;94712.81;;;21.98;66.43
56052;BME280;41919;42.648;23.384;2023-08-24T04:14:29;94714.38;;;22.04;66.48
56052;BME280;41919;42.648;23.384;2023-08-24T04:16:54;94713.28;;;22.10;66.61
56052;BME280;41919;42.648;23.384;2023-08-24T04:19:21;94745.13;;;22.41;67.07
56052;BME280;41919;42.648;23.384;2023-08-24T04:21:46;94689.84;;;22.23;66.65
56052;BME280;41919;42.648;23.384;2023-08-24T04:24:11;94710.75;;;22.50;66.29
56052;BME280;41919;42.648;23.384;2023-08-24T04:26:37;94712.03;;;22.58;66.01
56052;BME280;41919;42.648;23.384;2023-08-24T04:29:02;94714.22;;;22.45;65.44
56052;BME280;41919;42.648;23.384;2023-08-24T04:31:27;94730.03;;;22.11;67.98
56052;BME280;41919;42.648;23.384;2023-08-24T04:33:53;94724.06;;;21.59;70.54
56052;BME280;41919;42.648;23.384;2023-08-24T04:36:18;94691.41;;;21.18;71.33
56052;BME280;41919;42.648;23.384;2023-08-24T04:38:43;94707.34;;;21.18;73.38
56052;BME280;41919;42.648;23.384;2023-08-24T04:41:09;94739.22;;;21.64;79.53
56052;BME280;41919;42.648;23.384;2023-08-24T04:43:35;94756.19;;;21.99;74.48
56052;BME280;41919;42.648;23.384;2023-08-24T04:46:01;94712.25;;;22.06;71.87
56052;BME280;41919;42.648;23.384;2023-08-24T04:48:27;94697.84;;;22.18;69.39
56052;BME280;41919;42.648;23.384;2023-08-24T04:50:58;94689.53;;;22.35;66.80
56052;BME280;41919;42.648;23.384;2023-08-24T04:53:23;94750.25;;;22.82;65.29
56052;BME280;41919;42.648;23.384;2023-08-24T04:55:49;94697.19;;;22.46;65.03
56052;BME280;41919;42.648;23.384;2023-08-24T04:58:15;94744.72;;;22.74;65.53
56052;BME280;41919;42.648;23.384;2023-08-24T05:00:40;94686.88;;;22.35;64.38
56052;BME280;41919;42.648;23.384;2023-08-24T05:03:06;94741.28;;;22.68;64.54
56052;BME280;41919;42.648;23.384;2023-08-24T05:05:33;94718.75;;;22.50;63.61
56052;BME280;41919;42.648;23.384;2023-08-24T05:08:00;94749.53;;;22.66;63.30
56052;BME280;41919;42.648;23.384;2023-08-24T05:10:29;94741.53;;;22.66;62.82
56052;BME280;41919;42.648;23.384;2023-08-24T05:12:55;94756.38;;;22.83;62.63
56052;BME280;41919;42.648;23.384;2023-08-24T05:15:20;94752.34;;;22.85;61.98
56052;BME280;41919;42.648;23.384;2023-08-24T05:17:46;94739.56;;;22.87;61.67
56052;BME280;41919;42.648;23.384;2023-08-24T05:20:11;94751.38;;;23.21;60.93
56052;BME280;41919;42.648;23.384;2023-08-24T05:22:37;94773.00;;;23.48;59.55
56052;BME280;41919;42.648;23.384;2023-08-24T05:25:03;94753.72;;;23.57;59.77
56052;BME280;41919;42.648;23.384;2023-08-24T05:27:28;94710.53;;;23.25;59.77
56052;BME280;41919;42.648;23.384;2023-08-24T05:29:54;94761.31;;;23.44;60.53
56052;BME280;41919;42.648;23.384;2023-08-24T05:32:19;94707.25;;;22.99;61.64
56052;BME280;41919;42.648;23.384;2023-08-24T05:34:45;94749.50;;;23.21;62.58
56052;BME280;41919;42.648;23.384;2023-08-24T05:37:11;94707.78;;;23.01;61.82
56052;BME280;41919;42.648;23.384;2023-08-24T05:39:36;94765.44;;;23.61;61.17
56052;BME280;41919;42.648;23.384;2023-08-24T05:42:01;94719.09;;;23.52;60.39
56052;BME280;41919;42.648;23.384;2023-08-24T05:44:27;94763.03;;;23.94;59.77
56052;BME280;41919;42.648;23.384;2023-08-24T05:46:52;94752.50;;;24.02;60.15
56052;BME280;41919;42.648;23.384;2023-08-24T05:49:17;94779.03;;;23.94;60.53
56052;BME280;41919;42.648;23.384;2023-08-24T05:51:43;94782.59;;;23.84;60.87
56052;BME280;41919;42.648;23.384;2023-08-24T05:54:09;94776.13;;;23.90;60.13
56052;BME280;41919;42.648;23.384;2023-08-24T05:56:34;94731.84;;;23.60;60.23
56052;BME280;41919;42.648;23.384;2023-08-24T05:58:59;94752.28;;;23.69;60.34
56052;BME280;41919;42.648;23.384;2023-08-24T06:01:25;94783.34;;;23.90;60.57
56052;BME280;41919;42.648;23.384;2023-08-24T06:03:50;94761.69;;;23.91;60.35
56052;BME280;41919;42.648;23.384;2023-08-24T06:06:16;94784.06;;;24.24;59.44
56052;BME280;41919;42.648;23.384;2023-08-24T06:08:42;94794.41;;;24.55;58.30
56052;BME280;41919;42.648;23.384;2023-08-24T06:11:07;94787.25;;;25.13;57.37
56052;BME280;41919;42.648;23.384;2023-08-24T06:13:33;94752.69;;;25.35;55.87
56052;BME280;41919;42.648;23.384;2023-08-24T06:15:58;94671.72;;;25.76;53.28
56052;BME280;41919;42.648;23.384;2023-08-24T06:18:23;94770.38;;;27.30;49.65
56052;BME280;41919;42.648;23.384;2023-08-24T06:20:49;94781.13;;;27.75;48.81
56052;BME280;41919;42.648;23.384;2023-08-24T06:23:16;94779.28;;;27.85;47.63
56052;BME280;41919;42.648;23.384;2023-08-24T06:25:42;94732.50;;;27.77;47.19
56052;BME280;41919;42.648;23.384;2023-08-24T06:28:07;94680.50;;;27.42;47.36
56052;BME280;41919;42.648;23.384;2023-08-24T06:30:37;94788.97;;;28.26;46.91
56052;BME280;41919;42.648;23.384;2023-08-24T06:33:04;94738.63;;;28.00;45.94
56052;BME280;41919;42.648;23.384;2023-08-24T06:35:29;94781.63;;;28.49;46.26
56052;BME280;41919;42.648;23.384;2023-08-24T06:37:55;94749.38;;;28.49;45.97
56052;BME280;41919;42.648;23.384;2023-08-24T06:40:20;94784.13;;;28.85;46.04
56052;BME280;41919;42.648;23.384;2023-08-24T06:42:46;94776.88;;;29.64;43.92
56052;BME280;41919;42.648;23.384;2023-08-24T06:45:11;94769.78;;;30.63;42.01
56052;BME280;41919;42.648;23.384;2023-08-24T06:47:39;94732.84;;;31.26;38.93
56052;BME280;41919;42.648;23.384;2023-08-24T06:50:05;94765.69;;;31.50;39.07
56052;BME280;41919;42.648;23.384;2023-08-24T06:52:30;94748.69;;;32.28;37.61
56052;BME280;41919;42.648;23.384;2023-08-24T06:54:55;94768.81;;;33.17;35.53
56052;BME280;41919;42.648;23.384;2023-08-24T06:57:21;94773.59;;;33.36;35.33
56052;BME280;41919;42.648;23.384;2023-08-24T06:59:47;94776.91;;;33.57;34.26
56052;BME280;41919;42.648;23.384;2023-08-24T07:02:12;94779.22;;;32.53;36.60
56052;BME280;41919;42.648;23.384;2023-08-24T07:04:38;94784.25;;;32.18;37.34
56052;BME280;41919;42.648;23.384;2023-08-24T07:07:05;94772.88;;;31.79;38.55
56052;BME280;41919;42.648;23.384;2023-08-24T07:09:31;94780.41;;;31.73;38.52
56052;BME280;41919;42.648;23.384;2023-08-24T07:11:56;94667.88;;;31.11;38.43
56052;BME280;41919;42.648;23.384;2023-08-24T07:14:22;94774.63;;;31.96;38.49
56052;BME280;41919;42.648;23.384;2023-08-24T07:16:47;94777.44;;;31.99;38.37
56052;BME280;41919;42.648;23.384;2023-08-24T07:19:13;94672.00;;;31.62;37.67
56052;BME280;41919;42.648;23.384;2023-08-24T07:21:38;94745.53;;;32.63;36.62
56052;BME280;41919;42.648;23.384;2023-08-24T07:24:04;94736.34;;;33.05;36.07
56052;BME280;41919;42.648;23.384;2023-08-24T07:26:29;94728.47;;;33.56;35.02
56052;BME280;41919;42.648;23.384;2023-08-24T07:28:55;94761.31;;;34.27;33.91
56052;BME280;41919;42.648;23.384;2023-08-24T07:31:21;94715.00;;;34.51;32.48
56052;BME280;41919;42.648;23.384;2023-08-24T07:33:48;94728.59;;;34.67;32.61
56052;BME280;41919;42.648;23.384;2023-08-24T07:36:13;94759.97;;;35.39;32.13
56052;BME280;41919;42.648;23.384;2023-08-24T07:38:39;94750.47;;;35.49;30.91
56052;BME280;41919;42.648;23.384;2023-08-24T07:41:04;94719.59;;;35.18;30.81
56052;BME280;41919;42.648;23.384;2023-08-24T07:43:31;94747.69;;;35.26;30.87
56052;BME280;41919;42.648;23.384;2023-08-24T07:45:57;94752.84;;;35.31;30.14
56052;BME280;41919;42.648;23.384;2023-08-24T07:48:22;94753.94;;;35.10;31.08
56052;BME280;41919;42.648;23.384;2023-08-24T07:50:47;94761.97;;;35.23;31.02
56052;BME280;41919;42.648;23.384;2023-08-24T07:53:13;94759.56;;;35.18;31.03
56052;BME280;41919;42.648;23.384;2023-08-24T07:55:39;94716.41;;;34.97;30.82
56052;BME280;41919;42.648;23.384;2023-08-24T07:58:04;94704.78;;;35.15;30.45
56052;BME280;41919;42.648;23.384;2023-08-24T08:00:30;94755.16;;;35.91;30.08
56052;BME280;41919;42.648;23.384;2023-08-24T08:02:55;94758.06;;;36.02;30.19
56052;BME280;41919;42.648;23.384;2023-08-24T08:05:21;94750.06;;;35.89;29.56
56052;BME280;41919;42.648;23.384;2023-08-24T08:07:48;94753.16;;;36.11;29.51
56052;BME280;41919;42.648;23.384;2023-08-24T08:10:13;94733.41;;;36.14;29.16
56052;BME280;41919;42.648;23.384;2023-08-24T08:12:40;94756.31;;;36.13;30.50
56052;BME280;41919;42.648;23.384;2023-08-24T08:15:06;94688.28;;;35.86;29.82
56052;BME280;41919;42.648;23.384;2023-08-24T08:17:32;94765.41;;;36.44;29.50
56052;BME280;41919;42.648;23.384;2023-08-24T08:19:58;94759.34;;;36.54;29.08
56052;BME280;41919;42.648;23.384;2023-08-24T08:22:23;94720.91;;;36.33;28.90
56052;BME280;41919;42.648;23.384;2023-08-24T08:24:50;94759.88;;;36.63;28.73
56052;BME280;41919;42.648;23.384;2023-08-24T08:27:16;94756.72;;;36.61;28.85
56052;BME280;41919;42.648;23.384;2023-08-24T08:29:41;94711.91;;;36.05;29.15
56052;BME280;41919;42.648;23.384;2023-08-24T08:32:06;94683.75;;;35.71;29.61
56052;BME280;41919;42.648;23.384;2023-08-24T08:34:33;94714.56;;;35.40;29.55
56052;BME280;41919;42.648;23.384;2023-08-24T08:36:58;94732.72;;;35.16;29.83
56052;BME280;41919;42.648;23.384;2023-08-24T08:39:23;94701.25;;;34.95;30.61
56052;BME280;41919;42.648;23.384;2023-08-24T08:41:49;94740.97;;;35.39;30.64
56052;BME280;41919;42.648;23.384;2023-08-24T08:44:15;94728.50;;;35.77;30.25
56052;BME280;41919;42.648;23.384;2023-08-24T08:46:42;94695.81;;;35.73;29.13
56052;BME280;41919;42.648;23.384;2023-08-24T08:49:08;94736.34;;;35.82;29.19
56052;BME280;41919;42.648;23.384;2023-08-24T08:51:37;94737.59;;;36.08;29.28
56052;BME280;41919;42.648;23.384;2023-08-24T08:54:03;94710.97;;;35.98;28.97
56052;BME280;41919;42.648;23.384;2023-08-24T08:56:31;94730.19;;;35.85;29.28
56052;BME280;41919;42.648;23.384;2023-08-24T08:58:58;94726.28;;;36.06;29.11
56052;BME280;41919;42.648;23.384;2023-08-24T09:01:25;94687.03;;;36.07;29.43
56052;BME280;41919;42.648;23.384;2023-08-24T09:03:51;94671.00;;;36.21;28.65
56052;BME280;41919;42.648;23.384;2023-08-24T09:06:17;94702.41;;;36.68;27.95
56052;BME280;41919;42.648;23.384;2023-08-24T09:08:43;94713.16;;;36.35;27.65
56052;BME280;41919;42.648;23.384;2023-08-24T09:11:09;94659.59;;;35.46;28.98
56052;BME280;41919;42.648;23.384;2023-08-24T09:13:34;94686.56;;;35.78;29.20
56052;BME280;41919;42.648;23.384;2023-08-24T09:16:05;94664.72;;;35.71;29.07
56052;BME280;41919;42.648;23.384;2023-08-24T09:18:36;94675.94;;;35.92;28.51
56052;BME280;41919;42.648;23.384;2023-08-24T09:21:08;94647.84;;;35.85;28.26
56052;BME280;41919;42.648;23.384;2023-08-24T09:23:33;94672.94;;;36.21;27.95
56052;BME280;41919;42.648;23.384;2023-08-24T09:26:01;94677.31;;;36.29;28.08
56052;BME280;41919;42.648;23.384;2023-08-24T09:28:27;94663.03;;;36.12;27.80
56052;BME280;41919;42.648;23.384;2023-08-24T09:30:53;94637.75;;;35.85;28.32
56052;BME280;41919;42.648;23.384;2023-08-24T09:33:21;94630.63;;;35.77;28.53
56052;BME280;41919;42.648;23.384;2023-08-24T09:35:53;94669.34;;;36.17;28.17
56052;BME280;41919;42.648;23.384;2023-08-24T09:38:21;94661.72;;;36.26;28.03
56052;BME280;41919;42.648;23.384;2023-08-24T09:40:50;94629.38;;;35.98;27.83
56052;BME280;41919;42.648;23.384;2023-08-24T09:43:16;94664.56;;;36.10;28.50
56052;BME280;41919;42.648;23.384;2023-08-24T09:45:48;94662.63;;;36.10;28.21
56052;BME280;41919;42.648;23.384;2023-08-24T09:48:15;94658.16;;;35.99;28.04
56052;BME280;41919;42.648;23.384;2023-08-24T09:50:42;94621.94;;;35.68;28.37
56052;BME280;41919;42.648;23.384;2023-08-24T09:53:17;94648.63;;;35.85;28.25
56052;BME280;41919;42.648;23.384;2023-08-24T09:58:22;94613.97;;;35.79;27.46
56052;BME280;41919;42.648;23.384;2023-08-24T10:00:49;94652.69;;;35.72;27.76
56052;BME280;41919;42.648;23.384;2023-08-24T10:03:17;94637.25;;;35.57;27.90
56052;BME280;41919;42.648;23.384;2023-08-24T10:05:47;94616.75;;;35.40;27.94
56052;BME280;41919;42.648;23.384;2023-08-24T10:08:13;94614.28;;;35.31;28.10
56052;BME280;41919;42.648;23.384;2023-08-24T10:10:41;94631.44;;;35.35;28.12
56052;BME280;41919;42.648;23.384;2023-08-24T10:13:14;94598.72;;;34.89;28.66
56052;BME280;41919;42.648;23.384;2023-08-24T10:15:41;94523.28;;;34.40;28.34
56052;BME280;41919;42.648;23.384;2023-08-24T10:18:13;94598.88;;;34.96;28.14
56052;BME280;41919;42.648;23.384;2023-08-24T10:20:40;94628.00;;;34.99;28.12
56052;BME280;41919;42.648;23.384;2023-08-24T10:23:08;94614.25;;;34.53;28.89
56052;BME280;41919;42.648;23.384;2023-08-24T10:25:33;94633.09;;;34.46;28.66
56052;BME280;41919;42.648;23.384;2023-08-24T10:28:00;94613.91;;;34.19;29.04
56052;BME280;41919;42.648;23.384;2023-08-24T10:30:27;94620.84;;;34.01;29.32
56052;BME280;41919;42.648;23.384;2023-08-24T10:32:54;94576.97;;;33.79;29.40
56052;BME280;41919;42.648;23.384;2023-08-24T10:35:22;94624.94;;;34.10;29.09
56052;BME280;41919;42.648;23.384;2023-08-24T10:37:47;94623.09;;;34.14;29.14
56052;BME280;41919;42.648;23.384;2023-08-24T10:40:13;94615.56;;;34.08;29.09
56052;BME280;41919;42.648;23.384;2023-08-24T10:42:46;94581.50;;;33.75;29.37
56052;BME280;41919;42.648;23.384;2023-08-24T10:45:13;94575.13;;;33.67;29.91
56052;BME280;41919;42.648;23.384;2023-08-24T10:47:46;94592.41;;;33.63;29.58
56052;BME280;41919;42.648;23.384;2023-08-24T10:50:11;94618.75;;;33.78;29.92
56052;BME280;41919;42.648;23.384;2023-08-24T10:52:43;94609.56;;;33.67;30.14
56052;BME280;41919;42.648;23.384;2023-08-24T10:55:26;94603.16;;;33.43;30.53
56052;BME280;41919;42.648;23.384;2023-08-24T10:57:58;94607.25;;;33.37;30.58
56052;BME280;41919;42.648;23.384;2023-08-24T11:00:27;94590.97;;;33.21;31.04
56052;BME280;41919;42.648;23.384;2023-08-24T11:02:54;94564.53;;;33.14;30.43
56052;BME280;41919;42.648;23.384;2023-08-24T11:05:29;94597.47;;;33.48;30.87
56052;BME280;41919;42.648;23.384;2023-08-24T11:08:00;94595.56;;;33.49;31.49
56052;BME280;41919;42.648;23.384;2023-08-24T11:13:06;94602.53;;;33.18;33.21
56052;BME280;41919;42.648;23.384;2023-08-24T11:15:45;94596.13;;;33.10;33.60
56052;BME280;41919;42.648;23.384;2023-08-24T11:18:25;94575.97;;;32.67;34.12
56052;BME280;41919;42.648;23.384;2023-08-24T11:23:19;94583.91;;;32.48;34.73
56052;BME280;41919;42.648;23.384;2023-08-24T11:25:46;94542.19;;;32.20;35.10
56052;BME280;41919;42.648;23.384;2023-08-24T11:28:17;94546.56;;;32.25;34.46
56052;BME280;41919;42.648;23.384;2023-08-24T11:30:43;94560.53;;;32.27;35.36
56052;BME280;41919;42.648;23.384;2023-08-24T11:33:11;94546.38;;;32.06;35.54
56052;BME280;41919;42.648;23.384;2023-08-24T11:35:36;94562.25;;;32.07;36.06
56052;BME280;41919;42.648;23.384;2023-08-24T11:38:02;94555.06;;;31.74;36.11
56052;BME280;41919;42.648;23.384;2023-08-24T11:40:28;94592.66;;;31.92;36.54
56052;BME280;41919;42.648;23.384;2023-08-24T11:42:57;94559.44;;;31.54;37.16
56052;BME280;41919;42.648;23.384;2023-08-24T11:45:23;94596.81;;;31.64;37.78
56052;BME280;41919;42.648;23.384;2023-08-24T11:47:50;94568.81;;;31.23;38.18
56052;BME280;41919;42.648;23.384;2023-08-24T11:50:16;94552.06;;;30.84;38.46
56052;BME280;41919;42.648;23.384;2023-08-24T11:52:42;94557.06;;;30.74;38.96
56052;BME280;41919;42.648;23.384;2023-08-24T11:55:08;94604.09;;;31.06;39.50
56052;BME280;41919;42.648;23.384;2023-08-24T11:57:37;94594.84;;;30.95;39.85
56052;BME280;41919;42.648;23.384;2023-08-24T12:00:03;94584.38;;;30.93;39.46
56052;BME280;41919;42.648;23.384;2023-08-24T12:02:30;94596.44;;;30.96;40.10
56052;BME280;41919;42.648;23.384;2023-08-24T12:04:55;94542.09;;;30.64;40.37
56052;BME280;41919;42.648;23.384;2023-08-24T12:07:21;94580.44;;;30.91;39.42
56052;BME280;41919;42.648;23.384;2023-08-24T12:09:47;94565.75;;;30.79;39.46
56052;BME280;41919;42.648;23.384;2023-08-24T12:12:16;94523.56;;;30.41;39.67
56052;BME280;41919;42.648;23.384;2023-08-24T12:14:43;94564.72;;;30.72;39.96
56052;BME280;41919;42.648;23.384;2023-08-24T12:17:10;94515.84;;;30.40;39.62
56052;BME280;41919;42.648;23.384;2023-08-24T12:19:35;94524.25;;;30.38;39.94
56052;BME280;41919;42.648;23.384;2023-08-24T12:22:00;94543.50;;;30.49;40.46
56052;BME280;41919;42.648;23.384;2023-08-24T12:24:26;94573.81;;;30.67;40.76
56052;BME280;41919;42.648;23.384;2023-08-24T12:26:58;94580.75;;;30.68;40.47
56052;BME280;41919;42.648;23.384;2023-08-24T12:29:24;94526.38;;;30.03;41.35
56052;BME280;41919;42.648;23.384;2023-08-24T12:31:50;94597.38;;;30.28;41.96
56052;BME280;41919;42.648;23.384;2023-08-24T12:34:15;94575.75;;;30.16;41.97
56052;BME280;41919;42.648;23.384;2023-08-24T12:36:41;94600.72;;;30.04;42.06
56052;BME280;41919;42.648;23.384;2023-08-24T12:39:11;94578.75;;;29.93;42.55
56052;BME280;41919;42.648;23.384;2023-08-24T12:41:38;94554.28;;;29.68;42.09
56052;BME280;41919;42.648;23.384;2023-08-24T12:44:04;94597.88;;;30.00;42.62
56052;BME280;41919;42.648;23.384;2023-08-24T12:46:33;94594.13;;;29.93;43.27
56052;BME280;41919;42.648;23.384;2023-08-24T12:49:00;94477.47;;;29.03;43.73
56052;BME280;41919;42.648;23.384;2023-08-24T12:51:26;94605.13;;;29.79;44.22
56052;BME280;41919;42.648;23.384;2023-08-24T12:53:51;94605.91;;;29.79;44.19
56052;BME280;41919;42.648;23.384;2023-08-24T12:56:16;94594.69;;;29.68;43.56
56052;BME280;41919;42.648;23.384;2023-08-24T12:58:42;94590.44;;;29.67;43.31
56052;BME280;41919;42.648;23.384;2023-08-24T13:01:07;94623.16;;;29.87;43.38